N2PT -KSAN
Flight info
| Callsign | N2PT |
|---|---|
| Flight time | N/A |
| Altitude | VFR |
| Route | |
| Aircraft | P28B/L-VGD/C |
Departure
| Time | N/A |
|---|---|
| Airport | - |
Arrival
| Time | 2026-04-25 22:43 |
|---|---|
| Airport | San Diego International Airport (KSAN) |
| Time | Latitude | Longitude | Altitude | Speed | Heading |
|---|---|---|---|---|---|
| 2026-04-25 22:43 | 32.73447 | -117.18594 | 30 ft | 0 kts | 15° |
| 2026-04-25 22:45 | 32.73442 | -117.18583 | 30 ft | 6 kts | 153° |
| 2026-04-25 22:45 | 32.73406 | -117.18562 | 23 ft | 6 kts | 154° |
| 2026-04-25 22:45 | 32.73363 | -117.18521 | 23 ft | 10 kts | 126° |
| 2026-04-25 22:45 | 32.73338 | -117.18423 | 26 ft | 17 kts | 107° |
| 2026-04-25 22:46 | 32.73298 | -117.18255 | 23 ft | 25 kts | 106° |
| 2026-04-25 22:46 | 32.73247 | -117.18030 | 23 ft | 30 kts | 103° |
| 2026-04-25 22:46 | 32.73188 | -117.17798 | 24 ft | 28 kts | 104° |
| 2026-04-25 22:46 | 32.73154 | -117.17654 | 24 ft | 15 kts | 107° |
| 2026-04-25 22:47 | 32.73106 | -117.17557 | 23 ft | 1 kts | 156° |
| 2026-04-25 22:48 | 32.73034 | -117.17527 | 26 ft | 12 kts | 186° |
| 2026-04-25 22:48 | 32.73023 | -117.17596 | 24 ft | 4 kts | 286° |
| 2026-04-25 22:48 | 32.73023 | -117.17597 | 24 ft | 0 kts | 286° |
| 2026-04-25 22:50 | 32.73049 | -117.17719 | 23 ft | 45 kts | 277° |
| 2026-04-25 22:50 | 32.73195 | -117.18259 | 105 ft | 85 kts | 279° |
| 2026-04-25 22:50 | 32.73381 | -117.18970 | 370 ft | 97 kts | 290° |
| 2026-04-25 22:50 | 32.74008 | -117.19316 | 650 ft | 120 kts | 360° |
| 2026-04-25 22:51 | 32.74700 | -117.18688 | 908 ft | 132 kts | 65° |
| 2026-04-25 22:51 | 32.74718 | -117.17617 | 1232 ft | 135 kts | 99° |
| 2026-04-25 22:51 | 32.74594 | -117.16452 | 1412 ft | 146 kts | 99° |
| 2026-04-25 22:51 | 32.74488 | -117.15233 | 1582 ft | 156 kts | 98° |
| 2026-04-25 22:52 | 32.74358 | -117.13955 | 1613 ft | 141 kts | 101° |
| 2026-04-25 22:52 | 32.74188 | -117.12950 | 1633 ft | 105 kts | 116° |
| 2026-04-25 22:52 | 32.73798 | -117.12404 | 1677 ft | 77 kts | 158° |
| 2026-04-25 22:52 | 32.73454 | -117.12397 | 1637 ft | 85 kts | 208° |
| 2026-04-25 22:53 | 32.72760 | -117.13237 | 1439 ft | 122 kts | 237° |
| 2026-04-25 22:53 | 32.72473 | -117.14229 | 1302 ft | 124 kts | 262° |
| 2026-04-25 22:53 | 32.72496 | -117.15161 | 1058 ft | 106 kts | 273° |
| 2026-04-25 22:53 | 32.72664 | -117.16016 | 745 ft | 109 kts | 279° |
| 2026-04-25 22:54 | 32.72846 | -117.16871 | 502 ft | 102 kts | 276° |
| 2026-04-25 22:54 | 32.73041 | -117.17683 | 237 ft | 101 kts | 279° |
| 2026-04-25 22:54 | 32.73231 | -117.18442 | 57 ft | 90 kts | 280° |
| 2026-04-25 22:54 | 32.73389 | -117.19076 | 31 ft | 70 kts | 280° |
| 2026-04-25 22:55 | 32.73543 | -117.19693 | 288 ft | 83 kts | 285° |
| 2026-04-25 22:55 | 32.73766 | -117.20350 | 605 ft | 90 kts | 290° |
| 2026-04-25 22:55 | 32.74032 | -117.21044 | 929 ft | 98 kts | 302° |
| 2026-04-25 22:55 | 32.74703 | -117.21367 | 1117 ft | 124 kts | 356° |
| 2026-04-25 22:56 | 32.75618 | -117.21203 | 1205 ft | 138 kts | 6° |
| 2026-04-25 22:56 | 32.76492 | -117.20784 | 1406 ft | 141 kts | 43° |
| 2026-04-25 22:56 | 32.76850 | -117.19710 | 1581 ft | 141 kts | 94° |
| 2026-04-25 22:56 | 32.76718 | -117.18554 | 1728 ft | 143 kts | 101° |
| 2026-04-25 22:57 | 32.76576 | -117.17369 | 1942 ft | 147 kts | 99° |
| 2026-04-25 22:57 | 32.76437 | -117.16130 | 2118 ft | 152 kts | 100° |
| 2026-04-25 22:57 | 32.76323 | -117.14840 | 2191 ft | 168 kts | 98° |
| 2026-04-25 22:57 | 32.76187 | -117.13416 | 2119 ft | 176 kts | 99° |
| 2026-04-25 22:58 | 32.75779 | -117.12189 | 2374 ft | 148 kts | 153° |
| 2026-04-25 22:58 | 32.74779 | -117.12094 | 2146 ft | 152 kts | 195° |
| 2026-04-25 22:58 | 32.73785 | -117.12461 | 1974 ft | 142 kts | 203° |
| 2026-04-25 22:58 | 32.72976 | -117.12865 | 1706 ft | 113 kts | 211° |
| 2026-04-25 22:59 | 32.72363 | -117.13268 | 1510 ft | 94 kts | 214° |
| 2026-04-25 22:59 | 32.71843 | -117.13655 | 1303 ft | 84 kts | 215° |
| 2026-04-25 22:59 | 32.71463 | -117.14005 | 1350 ft | 61 kts | 275° |
| 2026-04-25 22:59 | 32.71944 | -117.14536 | 1149 ft | 125 kts | 308° |
| 2026-04-25 23:00 | 32.72442 | -117.15357 | 831 ft | 117 kts | 292° |
| 2026-04-25 23:00 | 32.72695 | -117.16184 | 573 ft | 97 kts | 279° |
| 2026-04-25 23:00 | 32.72869 | -117.16915 | 387 ft | 88 kts | 277° |
| 2026-04-25 23:00 | 32.73028 | -117.17624 | 172 ft | 88 kts | 279° |
| 2026-04-25 23:01 | 32.73188 | -117.18282 | 43 ft | 77 kts | 283° |
| 2026-04-25 23:01 | 32.73335 | -117.18842 | 146 ft | 73 kts | 282° |
| 2026-04-25 23:01 | 32.73488 | -117.19489 | 401 ft | 87 kts | 283° |
| 2026-04-25 23:01 | 32.73664 | -117.20252 | 599 ft | 102 kts | 281° |
| 2026-04-25 23:02 | 32.73878 | -117.21075 | 839 ft | 105 kts | 283° |
| 2026-04-25 23:02 | 32.74276 | -117.21754 | 843 ft | 105 kts | 326° |
| 2026-04-25 23:02 | 32.74962 | -117.21437 | 928 ft | 119 kts | 58° |
| 2026-04-25 23:02 | 32.75023 | -117.20504 | 981 ft | 118 kts | 104° |
| 2026-04-25 23:03 | 32.74876 | -117.19567 | 1113 ft | 113 kts | 102° |
| 2026-04-25 23:03 | 32.74778 | -117.18647 | 1253 ft | 110 kts | 99° |
| 2026-04-25 23:03 | 32.74712 | -117.17715 | 1303 ft | 120 kts | 95° |
| 2026-04-25 23:03 | 32.74671 | -117.16736 | 1283 ft | 108 kts | 95° |
| 2026-04-25 23:04 | 32.74599 | -117.15844 | 1221 ft | 113 kts | 97° |
| 2026-04-25 23:04 | 32.74415 | -117.15287 | 1131 ft | 111 kts | 153° |
| 2026-04-25 23:04 | 32.73532 | -117.15646 | 908 ft | 97 kts | 225° |
| 2026-04-25 23:04 | 32.73152 | -117.16249 | 666 ft | 87 kts | 242° |
| 2026-04-25 23:05 | 32.72974 | -117.16891 | 431 ft | 79 kts | 253° |